Time;durP1;ratioP1;P1;durP2;ratioP2;P2;SDS_P1;SDS_P2;PMS_P1;PMS_P2;Temp;Humidity;BMP_temperature;BMP_pressure;BME280_temperature;BME280_humidity;BME280_pressure;Samples;Min_cycle;Max_cycle;Signal;HPM_P1;HPM_P2
2022/04/01 00:01:58;;;;;;;;;;;;;;;;;;5078302;28;20228;-27
2022/04/01 00:04:25;;;;;;;;;;;;;;;;;;5078059;28;19920;-27
2022/04/01 00:06:51;;;;;;;;;;;;;;;;;;5078031;28;19922;-27
2022/04/01 00:09:20;;;;;;;;;;;;;;;;;;5078656;28;20296;-27
2022/04/01 00:11:46;;;;;;;;;;;;;;;;;;5077938;28;19912;-27
2022/04/01 00:14:13;;;;;;;;;;;;;;;;;;5078562;28;19919;-27
2022/04/01 00:16:39;;;;;;;;;;;;;;;;;;5077924;28;19924;-27
2022/04/01 00:19:06;;;;;;;;;;;;;;;;;;5078479;28;19915;-27
2022/04/01 00:21:32;;;;;;;;;;;;;;;;;;5077895;28;19920;-27
2022/04/01 00:23:59;;;;;;;;;;;;;;;;;;5078011;28;20496;-27
2022/04/01 00:26:26;;;;;;;;;;;;;;;;;;5078003;28;19918;-27
2022/04/01 00:28:52;;;;;;;;;;;;;;;;;;5077522;28;19913;-27
2022/04/01 00:31:18;;;;;;;;;;;;;;;;;;5077648;28;20011;-27
2022/04/01 00:33:45;;;;;;;;;;;;;;;;;;5077727;28;20022;-27
2022/04/01 00:36:11;;;;;;;;;;;;;;;;;;5077457;28;20396;-27
2022/04/01 00:38:38;;;;;;;;;;;;;;;;;;5078246;28;19995;-27
2022/04/01 00:41:04;;;;;;;;;;;;;;;;;;5077540;28;19912;-27
2022/04/01 00:43:32;;;;;;;;;;;;;;;;;;5077466;28;19909;-27
2022/04/01 00:45:58;;;;;;;;;;;;;;;;;;5077342;28;19912;-27
2022/04/01 00:48:25;;;;;;;;;;;;;;;;;;5077857;28;20035;-27
2022/04/01 00:50:51;;;;;;;;;;;;;;;;;;5077064;28;20046;-27
2022/04/01 00:53:17;;;;;;;;;;;;;;;;;;5077227;28;20301;-27
2022/04/01 00:55:43;;;;;;;;;;;;;;;;;;5077154;28;20331;-27
2022/04/01 00:58:10;;;;;;;;;;;;;;;;;;5077764;28;20029;-27
2022/04/01 01:00:36;;;;;;;;;;;;;;;;;;5077049;28;19913;-27
2022/04/01 01:03:02;;;;;;;;;;;;;;;;;;5076796;28;20051;-27
2022/04/01 01:05:30;;;;;;;;;;;;;;;;;;5077092;28;20305;-27
2022/04/01 01:07:57;;;;;;;;;;;;;;;;;;5076873;28;19923;-26
2022/04/01 01:10:23;;;;;;;;;;;;;;;;;;5076823;28;20309;-26
2022/04/01 01:12:50;;;;;;;;;;;;;;;;;;5077371;28;19999;-26
2022/04/01 01:15:18;;;;;;;;;;;;;;;;;;5077688;28;19995;-26
2022/04/01 01:17:44;;;;;;;;;;;;;;;;;;5076678;28;19931;-26
2022/04/01 01:20:17;;;;;;;;;;;;;;;;;;5076699;28;20259;-26
2022/04/01 01:22:43;;;;;;;;;;;;;;;;;;5076487;28;19912;-26
2022/04/01 01:25:09;;;;;;;;;;;;;;;;;;5076709;28;19916;-26
2022/04/01 01:27:36;;;;;;;;;;;;;;;;;;5076525;28;19916;-26
2022/04/01 01:30:02;;;;;;;;;;;;;;;;;;5077146;28;19908;-26
2022/04/01 01:32:29;;;;;;;;;;;;;;;;;;5058808;28;20381;-27
2022/04/01 01:34:55;;;;;;;;;;;;;;;;;;5076694;28;19912;-26
2022/04/01 01:37:21;;;;;;;;;;;;;;;;;;5076287;28;19913;-26
2022/04/01 01:39:47;;;;;;;;;;;;;;;;;;5076885;28;19908;-27
2022/04/01 01:42:14;;;;;;;;;;;;;;;;;;5076207;28;19913;-26
2022/04/01 01:44:40;;;;;;;;;;;;;;;;;;5076158;28;20370;-26
2022/04/01 01:47:06;;;;;;;;;;;;;;;;;;5076008;28;19942;-26
2022/04/01 01:49:32;;;;;;;;;;;;;;;;;;5076167;28;19916;-26
2022/04/01 01:54:49;;;;;;;;;;;;;;;;;;5076101;28;19962;-26
2022/04/01 01:57:15;;;;;;;;;;;;;;;;;;5075968;28;19919;-26
2022/04/01 01:59:41;;;;;;;;;;;;;;;;;;5075865;28;19967;-26
2022/04/01 02:02:08;;;;;;;;;;;;;;;;;;5074897;28;19909;-26
2022/04/01 02:04:34;;;;;;;;;;;;;;;;;;5075796;28;19913;-26
2022/04/01 02:07:00;;;;;;;;;;;;;;;;;;5075720;28;19920;-26
2022/04/01 02:09:26;;;;;;;;;;;;;;;;;;5075787;28;19912;-26
2022/04/01 02:11:52;;;;;;;;;;;;;;;;;;5075675;28;19912;-26
2022/04/01 02:14:19;;;;;;;;;;;;;;;;;;5075627;28;19912;-27
2022/04/01 02:16:45;;;;;;;;;;;;;;;;;;5075590;28;19966;-26
2022/04/01 02:19:11;;;;;;;;;;;;;;;;;;5076218;28;20296;-26
2022/04/01 02:21:37;;;;;;;;;;;;;;;;;;5075456;28;19919;-26
2022/04/01 02:24:04;;;;;;;;;;;;;;;;;;5057873;28;19999;-26
2022/04/01 02:26:30;;;;;;;;;;;;;;;;;;5076012;28;19962;-26
2022/04/01 02:28:59;;;;;;;;;;;;;;;;;;5075371;28;19924;-26
2022/04/01 02:31:25;;;;;;;;;;;;;;;;;;5075339;28;20347;-26
2022/04/01 02:33:51;;;;;;;;;;;;;;;;;;5075924;28;19908;-26
2022/04/01 02:36:17;;;;;;;;;;;;;;;;;;5075370;28;19923;-26
2022/04/01 02:38:43;;;;;;;;;;;;;;;;;;5075945;28;19916;-26
2022/04/01 02:41:11;;;;;;;;;;;;;;;;;;5075571;28;20421;-26
2022/04/01 02:43:37;;;;;;;;;;;;;;;;;;5075447;28;19985;-26
2022/04/01 02:46:05;;;;;;;;;;;;;;;;;;5075524;28;20374;-26
2022/04/01 02:48:31;;;;;;;;;;;;;;;;;;5075927;28;19993;-26
2022/04/01 02:50:57;;;;;;;;;;;;;;;;;;5075191;28;19912;-26
2022/04/01 02:53:23;;;;;;;;;;;;;;;;;;5075653;28;19908;-27
2022/04/01 02:55:49;;;;;;;;;;;;;;;;;;5075156;28;20377;-26
2022/04/01 02:58:15;;;;;;;;;;;;;;;;;;5075956;28;20000;-27
2022/04/01 03:00:41;;;;;;;;;;;;;;;;;;5075058;28;19916;-26
2022/04/01 03:03:07;;;;;;;;;;;;;;;;;;5081103;28;19916;-27
2022/04/01 03:05:33;;;;;;;;;;;;;;;;;;5090840;28;20207;-26
2022/04/01 03:08:00;;;;;;;;;;;;;;;;;;5095359;28;19920;-26
2022/04/01 03:10:27;;;;;;;;;;;;;;;;;;5095128;28;19908;-26
2022/04/01 03:12:53;;;;;;;;;;;;;;;;;;5096257;28;19912;-26
2022/04/01 03:15:19;;;;;;;;;;;;;;;;;;5099965;28;19927;-26
2022/04/01 03:17:45;;;;;;;;;;;;;;;;;;5099574;28;20251;-26
2022/04/01 03:20:14;;;;;;;;;;;;;;;;;;5099591;28;19908;-26
2022/04/01 03:22:40;;;;;;;;;;;;;;;;;;5099150;28;19912;-26
2022/04/01 03:25:06;;;;;;;;;;;;;;;;;;5099513;28;20353;-26
2022/04/01 03:27:33;;;;;;;;;;;;;;;;;;5099591;28;19920;-26
2022/04/01 03:29:59;;;;;;;;;;;;;;;;;;5099365;28;19912;-26
2022/04/01 03:32:26;;;;;;;;;;;;;;;;;;5098998;28;20262;-26
2022/04/01 03:34:52;;;;;;;;;;;;;;;;;;5098957;28;19956;-26
2022/04/01 03:37:18;;;;;;;;;;;;;;;;;;5098965;28;19923;-26
2022/04/01 03:39:44;;;;;;;;;;;;;;;;;;5098870;28;19910;-26
2022/04/01 03:42:10;;;;;;;;;;;;;;;;;;5098799;28;19995;-26
2022/04/01 03:44:36;;;;;;;;;;;;;;;;;;5099128;28;19947;-26
2022/04/01 03:47:02;;;;;;;;;;;;;;;;;;5098891;28;19920;-27
2022/04/01 03:49:28;;;;;;;;;;;;;;;;;;5098676;28;20274;-27
2022/04/01 03:51:54;;;;;;;;;;;;;;;;;;5099380;28;19923;-27
2022/04/01 03:54:20;;;;;;;;;;;;;;;;;;5098858;28;19912;-26
2022/04/01 03:56:46;;;;;;;;;;;;;;;;;;5098535;28;19965;-26
2022/04/01 03:59:12;;;;;;;;;;;;;;;;;;5098525;28;20335;-27
2022/04/01 04:01:38;;;;;;;;;;;;;;;;;;5098477;28;19923;-26
2022/04/01 04:04:04;;;;;;;;;;;;;;;;;;5096093;28;20373;-26
2022/04/01 04:06:30;;;;;;;;;;;;;;;;;;5077948;28;19967;-26
2022/04/01 04:09:05;;;;;;;;;;;;;;;;;;5077699;28;20337;-26
2022/04/01 04:11:31;;;;;;;;;;;;;;;;;;5078223;28;20349;-26
2022/04/01 04:13:57;;;;;;;;;;;;;;;;;;5077904;28;19950;-27
2022/04/01 04:16:23;;;;;;;;;;;;;;;;;;5078161;28;19924;-27
2022/04/01 04:18:49;;;;;;;;;;;;;;;;;;5077611;28;20053;-27
2022/04/01 04:21:15;;;;;;;;;;;;;;;;;;5077511;28;19913;-27
2022/04/01 04:23:41;;;;;;;;;;;;;;;;;;5077524;28;19908;-27
2022/04/01 04:26:12;;;;;;;;;;;;;;;;;;5076803;28;19923;-27
2022/04/01 04:28:38;;;;;;;;;;;;;;;;;;5077436;28;19916;-27
2022/04/01 04:31:07;;;;;;;;;;;;;;;;;;5077492;28;19912;-27
2022/04/01 04:33:33;;;;;;;;;;;;;;;;;;5077327;28;20346;-27
2022/04/01 04:35:59;;;;;;;;;;;;;;;;;;5077968;28;20304;-27
2022/04/01 04:38:26;;;;;;;;;;;;;;;;;;5077275;28;19958;-27
2022/04/01 04:40:52;;;;;;;;;;;;;;;;;;5077558;28;19982;-27
2022/04/01 04:43:21;;;;;;;;;;;;;;;;;;5077249;28;19912;-27
2022/04/01 04:45:47;;;;;;;;;;;;;;;;;;5077222;28;20292;-27
2022/04/01 04:48:13;;;;;;;;;;;;;;;;;;5077390;28;19959;-27
2022/04/01 04:50:39;;;;;;;;;;;;;;;;;;5077132;28;20394;-27
2022/04/01 04:53:05;;;;;;;;;;;;;;;;;;5077064;28;19908;-27
2022/04/01 04:55:31;;;;;;;;;;;;;;;;;;5077340;28;19943;-27
2022/04/01 04:57:57;;;;;;;;;;;;;;;;;;5077258;28;19969;-27
2022/04/01 05:00:23;;;;;;;;;;;;;;;;;;5077281;28;20236;-27
2022/04/01 05:02:49;;;;;;;;;;;;;;;;;;5076739;28;19946;-27
2022/04/01 05:05:15;;;;;;;;;;;;;;;;;;5076725;28;20374;-27
2022/04/01 05:07:41;;;;;;;;;;;;;;;;;;5076804;28;19974;-27
2022/04/01 05:10:07;;;;;;;;;;;;;;;;;;5076768;28;19917;-27
2022/04/01 05:12:33;;;;;;;;;;;;;;;;;;5076593;28;20007;-27
2022/04/01 05:14:59;;;;;;;;;;;;;;;;;;5076821;28;19978;-27
2022/04/01 05:17:25;;;;;;;;;;;;;;;;;;5077262;28;20004;-27
2022/04/01 05:19:51;;;;;;;;;;;;;;;;;;5076456;28;20359;-27
2022/04/01 05:22:17;;;;;;;;;;;;;;;;;;5076517;28;19924;-27
2022/04/01 05:24:43;;;;;;;;;;;;;;;;;;5076426;28;19927;-27
2022/04/01 05:27:09;;;;;;;;;;;;;;;;;;5076796;28;20015;-27
2022/04/01 05:29:35;;;;;;;;;;;;;;;;;;5076233;28;19912;-27
2022/04/01 05:32:02;;;;;;;;;;;;;;;;;;5076157;28;20347;-27
2022/04/01 05:34:28;;;;;;;;;;;;;;;;;;5076274;28;19913;-27
2022/04/01 05:36:55;;;;;;;;;;;;;;;;;;5075179;28;19931;-27
2022/04/01 05:39:21;;;;;;;;;;;;;;;;;;5076407;28;20262;-27
2022/04/01 05:41:47;;;;;;;;;;;;;;;;;;5076110;28;20008;-27
2022/04/01 05:44:13;;;;;;;;;;;;;;;;;;5075980;28;19920;-27
2022/04/01 05:46:39;;;;;;;;;;;;;;;;;;5075858;28;19943;-27
2022/04/01 05:49:05;;;;;;;;;;;;;;;;;;5075720;28;19913;-27
2022/04/01 05:51:31;;;;;;;;;;;;;;;;;;5076324;28;20007;-27
2022/04/01 05:53:57;;;;;;;;;;;;;;;;;;5075920;28;19909;-27
2022/04/01 05:56:23;;;;;;;;;;;;;;;;;;5075957;28;20271;-27
2022/04/01 05:58:49;;;;;;;;;;;;;;;;;;5076175;28;19935;-27
2022/04/01 06:01:16;;;;;;;;;;;;;;;;;;5075615;28;20501;-27
2022/04/01 06:03:42;;;;;;;;;;;;;;;;;;5075435;28;19912;-27
2022/04/01 06:06:08;;;;;;;;;;;;;;;;;;5075409;28;19920;-27
2022/04/01 06:08:34;;;;;;;;;;;;;;;;;;5075698;28;19923;-27
2022/04/01 06:11:00;;;;;;;;;;;;;;;;;;5076045;28;19919;-27
2022/04/01 06:13:26;;;;;;;;;;;;;;;;;;5075348;28;19912;-27
2022/04/01 06:15:53;;;;;;;;;;;;;;;;;;5075613;28;20297;-27
2022/04/01 06:18:19;;;;;;;;;;;;;;;;;;5075380;28;19912;-27
2022/04/01 06:20:45;;;;;;;;;;;;;;;;;;5075868;28;19919;-27
2022/04/01 06:23:12;;;;;;;;;;;;;;;;;;5075208;28;19940;-27
2022/04/01 06:25:38;;;;;;;;;;;;;;;;;;5057691;28;19912;-27
2022/04/01 06:28:04;;;;;;;;;;;;;;;;;;5075457;28;19927;-27
2022/04/01 06:30:30;;;;;;;;;;;;;;;;;;5075214;28;19939;-27
2022/04/01 06:32:56;;;;;;;;;;;;;;;;;;5075247;28;19912;-27
2022/04/01 06:35:22;;;;;;;;;;;;;;;;;;5075054;28;19912;-27
2022/04/01 06:37:48;;;;;;;;;;;;;;;;;;5074967;28;19923;-27
2022/04/01 06:40:14;;;;;;;;;;;;;;;;;;5074964;28;19908;-27
2022/04/01 06:42:40;;;;;;;;;;;;;;;;;;5075289;28;19923;-27
2022/04/01 06:45:07;;;;;;;;;;;;;;;;;;5074943;28;19909;-27
2022/04/01 06:47:34;;;;;;;;;;;;;;;;;;5074748;28;19970;-26
2022/04/01 06:50:00;;;;;;;;;;;;;;;;;;5074849;28;19999;-28
2022/04/01 06:52:26;;;;;;;;;;;;;;;;;;5074819;28;19916;-27
2022/04/01 06:54:52;;;;;;;;;;;;;;;;;;5074775;28;19915;-26
2022/04/01 06:57:18;;;;;;;;;;;;;;;;;;5075315;28;19985;-27
2022/04/01 06:59:44;;;;;;;;;;;;;;;;;;5074708;28;19916;-27
2022/04/01 07:02:11;;;;;;;;;;;;;;;;;;5074634;28;19913;-27
2022/04/01 07:04:37;;;;;;;;;;;;;;;;;;5074612;28;20312;-27
2022/04/01 07:07:03;;;;;;;;;;;;;;;;;;5074946;28;19908;-27
2022/04/01 07:09:29;;;;;;;;;;;;;;;;;;5075322;28;19917;-27
2022/04/01 07:11:55;;;;;;;;;;;;;;;;;;5075015;28;19978;-27
2022/04/01 07:14:21;;;;;;;;;;;;;;;;;;5074756;28;19908;-27
2022/04/01 07:16:47;;;;;;;;;;;;;;;;;;5074577;28;19913;-27
2022/04/01 07:19:13;;;;;;;;;;;;;;;;;;5074638;28;20327;-27
2022/04/01 07:21:39;;;;;;;;;;;;;;;;;;5074737;28;19916;-27
2022/04/01 07:24:06;;;;;;;;;;;;;;;;;;5074612;28;19908;-27
2022/04/01 07:26:32;;;;;;;;;;;;;;;;;;5075753;28;19909;-27
2022/04/01 07:28:58;;;;;;;;;;;;;;;;;;5075015;28;19927;-27
2022/04/01 07:34:09;;;;;;;;;;;;;;;;;;5074825;28;20256;-27
2022/04/01 07:36:36;;;;;;;;;;;;;;;;;;5074720;28;19912;-27
2022/04/01 07:39:02;;;;;;;;;;;;;;;;;;5074450;28;19919;-26
2022/04/01 07:41:29;;;;;;;;;;;;;;;;;;5074456;28;19913;-26
2022/04/01 07:43:55;;;;;;;;;;;;;;;;;;5074352;28;20328;-26
2022/04/01 07:46:22;;;;;;;;;;;;;;;;;;5074684;28;19913;-26
2022/04/01 07:48:47;;;;;;;;;;;;;;;;;;5074282;28;19973;-27
2022/04/01 07:51:13;;;;;;;;;;;;;;;;;;5056795;28;19995;-26
2022/04/01 07:53:39;;;;;;;;;;;;;;;;;;5075422;28;19912;-26
2022/04/01 07:56:05;;;;;;;;;;;;;;;;;;5074740;28;19912;-26
2022/04/01 07:58:31;;;;;;;;;;;;;;;;;;5074288;28;19908;-26
2022/04/01 08:00:59;;;;;;;;;;;;;;;;;;5077580;28;20323;-26
2022/04/01 08:03:25;;;;;;;;;;;;;;;;;;5077960;28;19912;-26
2022/04/01 08:05:50;;;;;;;;;;;;;;;;;;5077828;28;19927;-26
2022/04/01 08:08:19;;;;;;;;;;;;;;;;;;5077943;28;19912;-26
2022/04/01 08:10:44;;;;;;;;;;;;;;;;;;5077976;28;19913;-26
2022/04/01 08:13:11;;;;;;;;;;;;;;;;;;5077802;28;20023;-26
2022/04/01 08:15:37;;;;;;;;;;;;;;;;;;5078050;28;20365;-26
2022/04/01 08:18:03;;;;;;;;;;;;;;;;;;5077680;28;19909;-26
2022/04/01 08:20:30;;;;;;;;;;;;;;;;;;5077607;28;20053;-26
2022/04/01 08:22:56;;;;;;;;;;;;;;;;;;5077442;28;19977;-26
2022/04/01 08:25:22;;;;;;;;;;;;;;;;;;5077942;28;19974;-26
2022/04/01 08:27:48;;;;;;;;;;;;;;;;;;5078293;28;19923;-26
2022/04/01 08:30:13;;;;;;;;;;;;;;;;;;5077465;28;19966;-26
2022/04/01 08:32:40;;;;;;;;;;;;;;;;;;5077571;28;19912;-26
2022/04/01 08:35:06;;;;;;;;;;;;;;;;;;5077619;28;19982;-26
2022/04/01 08:37:32;;;;;;;;;;;;;;;;;;5077553;28;19995;-26
2022/04/01 08:39:58;;;;;;;;;;;;;;;;;;5077610;28;19910;-27
2022/04/01 08:42:26;;;;;;;;;;;;;;;;;;5077135;28;19912;-27
2022/04/01 08:44:52;;;;;;;;;;;;;;;;;;5077478;28;20236;-27
2022/04/01 08:47:18;;;;;;;;;;;;;;;;;;5077435;28;19919;-26
2022/04/01 08:49:44;;;;;;;;;;;;;;;;;;5077414;28;19917;-27
2022/04/01 08:52:10;;;;;;;;;;;;;;;;;;5077077;28;19967;-27
2022/04/01 08:54:36;;;;;;;;;;;;;;;;;;5077147;28;20247;-27
2022/04/01 08:57:04;;;;;;;;;;;;;;;;;;5077081;28;19924;-27
2022/04/01 08:59:29;;;;;;;;;;;;;;;;;;5077245;28;20009;-27
2022/04/01 09:01:55;;;;;;;;;;;;;;;;;;5059058;28;20343;-27
2022/04/01 09:04:21;;;;;;;;;;;;;;;;;;5077038;28;19921;-27
2022/04/01 09:06:47;;;;;;;;;;;;;;;;;;5076830;28;20341;-27
2022/04/01 09:09:13;;;;;;;;;;;;;;;;;;5076947;28;19912;-27
2022/04/01 09:11:39;;;;;;;;;;;;;;;;;;5076500;28;19917;-27
2022/04/01 09:14:08;;;;;;;;;;;;;;;;;;5076638;28;19958;-27
2022/04/01 09:16:36;;;;;;;;;;;;;;;;;;5076619;28;19951;-27
2022/04/01 09:19:02;;;;;;;;;;;;;;;;;;5076825;28;20381;-27
2022/04/01 09:21:28;;;;;;;;;;;;;;;;;;5077077;28;19916;-27
2022/04/01 09:23:54;;;;;;;;;;;;;;;;;;5076134;28;19976;-26
2022/04/01 09:26:21;;;;;;;;;;;;;;;;;;5076532;28;19952;-26
2022/04/01 09:28:47;;;;;;;;;;;;;;;;;;5076094;28;19955;-26
2022/04/01 09:31:13;;;;;;;;;;;;;;;;;;5076551;28;19962;-26
2022/04/01 09:33:39;;;;;;;;;;;;;;;;;;5076179;28;19928;-26
2022/04/01 09:36:06;;;;;;;;;;;;;;;;;;5076522;28;19912;-26
2022/04/01 09:38:32;;;;;;;;;;;;;;;;;;5076092;28;19927;-27
2022/04/01 09:40:58;;;;;;;;;;;;;;;;;;5076904;28;20290;-27
2022/04/01 09:43:24;;;;;;;;;;;;;;;;;;5076035;28;19912;-27
2022/04/01 09:45:50;;;;;;;;;;;;;;;;;;5076477;28;19913;-27
2022/04/01 09:48:17;;;;;;;;;;;;;;;;;;5075890;28;19990;-27
2022/04/01 09:50:43;;;;;;;;;;;;;;;;;;5076114;28;19912;-27
2022/04/01 09:53:09;;;;;;;;;;;;;;;;;;5075996;28;19981;-27
2022/04/01 09:55:36;;;;;;;;;;;;;;;;;;5076173;28;19944;-27
2022/04/01 09:58:02;;;;;;;;;;;;;;;;;;5075578;28;19912;-26
2022/04/01 10:00:28;;;;;;;;;;;;;;;;;;5075870;28;19966;-26
2022/04/01 10:02:54;;;;;;;;;;;;;;;;;;5075484;28;19913;-26
2022/04/01 10:05:20;;;;;;;;;;;;;;;;;;5075226;28;19928;-26
2022/04/01 10:07:46;;;;;;;;;;;;;;;;;;5075940;28;19920;-27
2022/04/01 10:10:12;;;;;;;;;;;;;;;;;;5075436;28;19985;-26
2022/04/01 10:12:38;;;;;;;;;;;;;;;;;;5075389;28;19913;-27
2022/04/01 10:15:07;;;;;;;;;;;;;;;;;;5075516;28;20373;-27
2022/04/01 10:17:33;;;;;;;;;;;;;;;;;;5075677;28;19923;-27
2022/04/01 10:20:00;;;;;;;;;;;;;;;;;;5075824;28;19952;-27
2022/04/01 10:22:27;;;;;;;;;;;;;;;;;;5074673;28;19908;-26
2022/04/01 10:24:53;;;;;;;;;;;;;;;;;;5075249;28;19913;-28
2022/04/01 10:27:21;;;;;;;;;;;;;;;;;;5075607;28;19921;-28
2022/04/01 10:29:47;;;;;;;;;;;;;;;;;;5075550;28;19955;-27
2022/04/01 10:32:13;;;;;;;;;;;;;;;;;;5075112;28;20258;-27
2022/04/01 10:34:39;;;;;;;;;;;;;;;;;;5075275;28;19916;-27
2022/04/01 10:37:05;;;;;;;;;;;;;;;;;;5057485;28;20347;-27
2022/04/01 10:39:31;;;;;;;;;;;;;;;;;;5075745;28;19924;-27
2022/04/01 10:41:57;;;;;;;;;;;;;;;;;;5074957;28;19919;-27
2022/04/01 10:44:23;;;;;;;;;;;;;;;;;;5074963;28;19931;-27
2022/04/01 10:46:48;;;;;;;;;;;;;;;;;;5075278;28;20244;-27
2022/04/01 10:51:59;;;;;;;;;;;;;;;;;;5074979;28;20366;-27
2022/04/01 10:54:26;;;;;;;;;;;;;;;;;;5074926;28;19908;-27
2022/04/01 10:56:52;;;;;;;;;;;;;;;;;;5074890;28;19935;-27
2022/04/01 10:59:18;;;;;;;;;;;;;;;;;;5075119;28;20328;-27
2022/04/01 11:01:44;;;;;;;;;;;;;;;;;;5075063;28;19912;-27
2022/04/01 11:04:10;;;;;;;;;;;;;;;;;;5075010;28;19932;-27
2022/04/01 11:06:36;;;;;;;;;;;;;;;;;;5075454;28;19912;-27
2022/04/01 11:09:04;;;;;;;;;;;;;;;;;;5074785;28;19920;-27
2022/04/01 11:11:30;;;;;;;;;;;;;;;;;;5074093;28;19920;-27
2022/04/01 11:13:56;;;;;;;;;;;;;;;;;;5074792;28;20356;-27
2022/04/01 11:16:22;;;;;;;;;;;;;;;;;;5075405;28;19974;-27
2022/04/01 11:18:48;;;;;;;;;;;;;;;;;;5075064;28;19924;-27
2022/04/01 11:21:14;;;;;;;;;;;;;;;;;;5074680;28;20007;-27
2022/04/01 11:23:40;;;;;;;;;;;;;;;;;;5074549;28;19959;-27
2022/04/01 11:26:06;;;;;;;;;;;;;;;;;;5074714;28;19912;-27
2022/04/01 11:28:32;;;;;;;;;;;;;;;;;;5074870;28;19916;-27
2022/04/01 11:31:02;;;;;;;;;;;;;;;;;;5074797;28;20327;-27
2022/04/01 11:33:28;;;;;;;;;;;;;;;;;;5074613;28;19908;-27
2022/04/01 11:35:54;;;;;;;;;;;;;;;;;;5077662;28;20224;-27
2022/04/01 11:38:20;;;;;;;;;;;;;;;;;;5078594;28;19923;-27
2022/04/01 11:40:45;;;;;;;;;;;;;;;;;;5078845;28;19912;-27
2022/04/01 11:43:12;;;;;;;;;;;;;;;;;;5078457;28;20012;-27
2022/04/01 11:45:37;;;;;;;;;;;;;;;;;;5078468;28;20363;-27
2022/04/01 11:48:03;;;;;;;;;;;;;;;;;;5078200;28;19916;-27
2022/04/01 11:50:29;;;;;;;;;;;;;;;;;;5078384;28;19935;-27
2022/04/01 11:52:55;;;;;;;;;;;;;;;;;;5078127;28;20365;-27
2022/04/01 11:55:21;;;;;;;;;;;;;;;;;;5078116;28;19915;-27
2022/04/01 11:57:47;;;;;;;;;;;;;;;;;;5078211;28;19966;-27
2022/04/01 12:00:13;;;;;;;;;;;;;;;;;;5077850;28;20262;-27
2022/04/01 12:02:39;;;;;;;;;;;;;;;;;;5077782;28;19916;-27
2022/04/01 12:05:05;;;;;;;;;;;;;;;;;;5077893;28;20304;-27
2022/04/01 12:10:16;;;;;;;;;;;;;;;;;;5078005;28;19961;-27
2022/04/01 12:12:42;;;;;;;;;;;;;;;;;;5077576;28;19923;-27
2022/04/01 12:15:08;;;;;;;;;;;;;;;;;;5077842;28;20255;-27
2022/04/01 12:17:34;;;;;;;;;;;;;;;;;;5077469;28;19912;-27
2022/04/01 12:20:00;;;;;;;;;;;;;;;;;;5077547;28;19920;-27
2022/04/01 12:22:26;;;;;;;;;;;;;;;;;;5077563;28;19924;-27
2022/04/01 12:24:52;;;;;;;;;;;;;;;;;;5077540;28;20335;-27
2022/04/01 12:27:18;;;;;;;;;;;;;;;;;;5077513;28;19923;-27
2022/04/01 12:29:44;;;;;;;;;;;;;;;;;;5077566;28;19916;-27
2022/04/01 12:32:10;;;;;;;;;;;;;;;;;;5077663;28;19924;-27
2022/04/01 12:34:36;;;;;;;;;;;;;;;;;;5077498;28;19909;-27
2022/04/01 12:37:02;;;;;;;;;;;;;;;;;;5077898;28;20363;-27
2022/04/01 12:39:28;;;;;;;;;;;;;;;;;;5077669;28;19913;-27
2022/04/01 12:41:54;;;;;;;;;;;;;;;;;;5077209;28;19919;-27
2022/04/01 12:44:20;;;;;;;;;;;;;;;;;;5077809;28;19912;-27
2022/04/01 12:46:46;;;;;;;;;;;;;;;;;;5076641;28;19920;-27
2022/04/01 12:49:12;;;;;;;;;;;;;;;;;;5076977;28;20347;-27
2022/04/01 12:51:40;;;;;;;;;;;;;;;;;;5077233;28;19912;-27
2022/04/01 12:54:06;;;;;;;;;;;;;;;;;;5076819;28;19908;-27
2022/04/01 12:56:33;;;;;;;;;;;;;;;;;;5076976;28;19913;-27
2022/04/01 12:58:59;;;;;;;;;;;;;;;;;;5077200;28;19923;-27
2022/04/01 13:01:25;;;;;;;;;;;;;;;;;;5076641;28;19922;-27
2022/04/01 13:03:51;;;;;;;;;;;;;;;;;;5077132;28;19912;-27
2022/04/01 13:06:17;;;;;;;;;;;;;;;;;;5078387;28;19964;-27
2022/04/01 13:08:43;;;;;;;;;;;;;;;;;;5076592;28;19913;-27
2022/04/01 13:11:08;;;;;;;;;;;;;;;;;;5076929;28;20291;-27
2022/04/01 13:13:35;;;;;;;;;;;;;;;;;;5076833;28;19909;-27
2022/04/01 13:16:01;;;;;;;;;;;;;;;;;;5077034;28;19912;-27
2022/04/01 13:18:30;;;;;;;;;;;;;;;;;;5076825;28;19908;-27
2022/04/01 13:20:56;;;;;;;;;;;;;;;;;;5076867;28;19923;-27
2022/04/01 13:23:22;;;;;;;;;;;;;;;;;;5076516;28;20323;-27
2022/04/01 13:25:48;;;;;;;;;;;;;;;;;;5076783;28;20236;-27
2022/04/01 13:28:15;;;;;;;;;;;;;;;;;;5076320;28;19916;-27
2022/04/01 13:30:41;;;;;;;;;;;;;;;;;;5076310;28;19995;-27
2022/04/01 13:33:07;;;;;;;;;;;;;;;;;;5076289;28;19954;-27
2022/04/01 13:35:33;;;;;;;;;;;;;;;;;;5076149;28;19973;-27
2022/04/01 13:37:59;;;;;;;;;;;;;;;;;;5076318;28;19917;-27
2022/04/01 13:40:25;;;;;;;;;;;;;;;;;;5076604;28;20019;-27
2022/04/01 13:42:52;;;;;;;;;;;;;;;;;;5076287;28;19912;-27
2022/04/01 13:45:18;;;;;;;;;;;;;;;;;;5076352;28;19913;-27
2022/04/01 13:47:44;;;;;;;;;;;;;;;;;;5075930;28;19912;-27
2022/04/01 13:50:10;;;;;;;;;;;;;;;;;;5076207;28;19924;-27
2022/04/01 13:52:36;;;;;;;;;;;;;;;;;;5076125;28;19969;-27
2022/04/01 13:55:02;;;;;;;;;;;;;;;;;;5075909;28;19913;-27
2022/04/01 13:57:28;;;;;;;;;;;;;;;;;;5075004;28;19912;-27
2022/04/01 13:59:54;;;;;;;;;;;;;;;;;;5076219;28;19909;-27
2022/04/01 14:02:21;;;;;;;;;;;;;;;;;;5075512;28;20007;-27
2022/04/01 14:04:47;;;;;;;;;;;;;;;;;;5076132;28;19916;-27
2022/04/01 14:07:15;;;;;;;;;;;;;;;;;;5074955;28;20143;-27
2022/04/01 14:09:41;;;;;;;;;;;;;;;;;;5075477;28;20397;-27
2022/04/01 14:12:08;;;;;;;;;;;;;;;;;;5075810;28;19909;-27
2022/04/01 14:14:37;;;;;;;;;;;;;;;;;;5057853;28;20323;-27
2022/04/01 14:17:03;;;;;;;;;;;;;;;;;;5075406;28;19962;-27
2022/04/01 14:19:29;;;;;;;;;;;;;;;;;;5075273;28;19912;-27
2022/04/01 14:21:55;;;;;;;;;;;;;;;;;;5075357;28;19916;-27
2022/04/01 14:24:21;;;;;;;;;;;;;;;;;;5075231;28;19912;-27
2022/04/01 14:26:47;;;;;;;;;;;;;;;;;;5076116;28;19965;-27
2022/04/01 14:31:57;;;;;;;;;;;;;;;;;;5075192;28;19961;-27
2022/04/01 14:34:23;;;;;;;;;;;;;;;;;;5075383;28;19999;-27
2022/04/01 14:36:49;;;;;;;;;;;;;;;;;;5075385;28;20389;-27
2022/04/01 14:39:15;;;;;;;;;;;;;;;;;;5074927;28;19913;-27
2022/04/01 14:41:44;;;;;;;;;;;;;;;;;;5075752;28;19908;-27
2022/04/01 14:44:10;;;;;;;;;;;;;;;;;;5075335;28;19983;-28
2022/04/01 14:46:36;;;;;;;;;;;;;;;;;;5075385;28;19951;-28
2022/04/01 14:49:02;;;;;;;;;;;;;;;;;;5074927;28;19952;-26
2022/04/01 14:51:28;;;;;;;;;;;;;;;;;;5074956;28;19966;-27
2022/04/01 14:53:54;;;;;;;;;;;;;;;;;;5074964;28;19916;-26
2022/04/01 14:56:20;;;;;;;;;;;;;;;;;;5075192;28;19918;-27
2022/04/01 14:58:46;;;;;;;;;;;;;;;;;;5075426;28;20308;-27
2022/04/01 15:01:12;;;;;;;;;;;;;;;;;;5075035;28;20343;-27
2022/04/01 15:03:38;;;;;;;;;;;;;;;;;;5075423;28;19913;-27
2022/04/01 15:06:04;;;;;;;;;;;;;;;;;;5074727;28;19921;-27
2022/04/01 15:08:30;;;;;;;;;;;;;;;;;;5056840;28;20340;-26
2022/04/01 15:10:56;;;;;;;;;;;;;;;;;;5074914;28;19924;-27
2022/04/01 15:13:22;;;;;;;;;;;;;;;;;;5075321;28;19909;-26
2022/04/01 15:15:48;;;;;;;;;;;;;;;;;;5075104;28;19917;-27
2022/04/01 15:18:15;;;;;;;;;;;;;;;;;;5074999;28;19952;-27
2022/04/01 15:20:41;;;;;;;;;;;;;;;;;;5074802;28;19940;-27
2022/04/01 15:23:07;;;;;;;;;;;;;;;;;;5074752;28;19919;-27
2022/04/01 15:25:34;;;;;;;;;;;;;;;;;;5075036;28;19912;-27
2022/04/01 15:28:00;;;;;;;;;;;;;;;;;;5074623;28;19963;-27
2022/04/01 15:30:26;;;;;;;;;;;;;;;;;;5074660;28;19912;-26
2022/04/01 15:32:52;;;;;;;;;;;;;;;;;;5074896;28;20019;-26
2022/04/01 15:35:18;;;;;;;;;;;;;;;;;;5074733;28;20034;-26
2022/04/01 15:37:44;;;;;;;;;;;;;;;;;;5074769;28;19912;-26
2022/04/01 15:40:11;;;;;;;;;;;;;;;;;;5074471;28;20365;-26
2022/04/01 15:42:37;;;;;;;;;;;;;;;;;;5074666;28;19912;-26
2022/04/01 15:45:03;;;;;;;;;;;;;;;;;;5074754;28;19909;-27
2022/04/01 15:47:30;;;;;;;;;;;;;;;;;;5074363;28;19923;-27
2022/04/01 15:49:56;;;;;;;;;;;;;;;;;;5074800;28;19920;-27
2022/04/01 15:52:22;;;;;;;;;;;;;;;;;;5074665;28;20258;-27
2022/04/01 15:54:48;;;;;;;;;;;;;;;;;;5074808;28;19915;-27
2022/04/01 15:57:15;;;;;;;;;;;;;;;;;;5074468;28;19912;-27
2022/04/01 15:59:41;;;;;;;;;;;;;;;;;;5074667;28;19912;-27
2022/04/01 16:02:07;;;;;;;;;;;;;;;;;;5074594;28;19908;-27
2022/04/01 16:04:36;;;;;;;;;;;;;;;;;;5074227;28;20254;-27
2022/04/01 16:07:04;;;;;;;;;;;;;;;;;;5074278;28;19912;-27
2022/04/01 16:09:30;;;;;;;;;;;;;;;;;;5074491;28;19997;-27
2022/04/01 16:11:56;;;;;;;;;;;;;;;;;;5074682;28;19913;-27
2022/04/01 16:14:23;;;;;;;;;;;;;;;;;;5074511;28;19924;-27
2022/04/01 16:16:49;;;;;;;;;;;;;;;;;;5074113;28;19916;-27
2022/04/01 16:19:15;;;;;;;;;;;;;;;;;;5074235;28;19918;-27
2022/04/01 16:21:41;;;;;;;;;;;;;;;;;;5076459;28;19981;-27
2022/04/01 16:24:07;;;;;;;;;;;;;;;;;;5077733;28;19963;-27
2022/04/01 16:26:33;;;;;;;;;;;;;;;;;;5077677;28;19913;-27
2022/04/01 16:28:59;;;;;;;;;;;;;;;;;;5077777;28;19917;-27
2022/04/01 16:31:25;;;;;;;;;;;;;;;;;;5077869;28;19912;-27
2022/04/01 16:33:51;;;;;;;;;;;;;;;;;;5077580;28;20291;-27
2022/04/01 16:36:17;;;;;;;;;;;;;;;;;;5078587;28;19955;-27
2022/04/01 16:38:43;;;;;;;;;;;;;;;;;;5077413;28;19913;-27
2022/04/01 16:41:09;;;;;;;;;;;;;;;;;;5077772;28;19923;-27
2022/04/01 16:43:36;;;;;;;;;;;;;;;;;;5077419;28;19908;-27
2022/04/01 16:46:02;;;;;;;;;;;;;;;;;;5077369;28;19969;-27
2022/04/01 16:48:28;;;;;;;;;;;;;;;;;;5077798;28;19916;-27
2022/04/01 16:50:54;;;;;;;;;;;;;;;;;;5077313;28;19909;-27
2022/04/01 16:53:20;;;;;;;;;;;;;;;;;;5077502;28;19962;-27